sensor_id;sensor_type;location;lat;lon;timestamp;P1;durP1;ratioP1;P2;durP2;ratioP2
11921;SDS011;6021;51.182;3.160;2024-02-26T00:01:31;3.43;;;2.70;;
11921;SDS011;6021;51.182;3.160;2024-02-26T00:04:00;3.00;;;2.63;;
11921;SDS011;6021;51.182;3.160;2024-02-26T00:06:29;4.67;;;3.20;;
11921;SDS011;6021;51.182;3.160;2024-02-26T00:08:58;3.20;;;2.90;;
11921;SDS011;6021;51.182;3.160;2024-02-26T00:11:27;3.10;;;2.80;;
11921;SDS011;6021;51.182;3.160;2024-02-26T00:13:55;4.27;;;3.40;;
11921;SDS011;6021;51.182;3.160;2024-02-26T00:16:24;4.20;;;2.90;;
11921;SDS011;6021;51.182;3.160;2024-02-26T00:18:52;4.03;;;2.80;;
11921;SDS011;6021;51.182;3.160;2024-02-26T00:21:21;4.17;;;3.17;;
11921;SDS011;6021;51.182;3.160;2024-02-26T00:23:49;4.33;;;3.27;;
11921;SDS011;6021;51.182;3.160;2024-02-26T00:26:18;3.83;;;3.20;;
11921;SDS011;6021;51.182;3.160;2024-02-26T00:28:46;3.97;;;3.47;;
11921;SDS011;6021;51.182;3.160;2024-02-26T00:31:14;3.97;;;3.57;;
11921;SDS011;6021;51.182;3.160;2024-02-26T00:33:43;5.13;;;3.70;;
11921;SDS011;6021;51.182;3.160;2024-02-26T00:36:11;4.83;;;3.60;;
11921;SDS011;6021;51.182;3.160;2024-02-26T00:38:39;3.87;;;3.07;;
11921;SDS011;6021;51.182;3.160;2024-02-26T00:41:09;3.13;;;2.80;;
11921;SDS011;6021;51.182;3.160;2024-02-26T00:43:37;3.73;;;2.80;;
11921;SDS011;6021;51.182;3.160;2024-02-26T00:46:06;4.13;;;3.80;;
11921;SDS011;6021;51.182;3.160;2024-02-26T00:48:38;4.60;;;4.00;;
11921;SDS011;6021;51.182;3.160;2024-02-26T00:51:06;4.57;;;3.30;;
11921;SDS011;6021;51.182;3.160;2024-02-26T00:53:35;4.00;;;3.03;;
11921;SDS011;6021;51.182;3.160;2024-02-26T00:56:03;4.33;;;3.70;;
11921;SDS011;6021;51.182;3.160;2024-02-26T00:58:33;4.30;;;3.90;;
11921;SDS011;6021;51.182;3.160;2024-02-26T01:01:01;6.80;;;4.50;;
11921;SDS011;6021;51.182;3.160;2024-02-26T01:03:30;3.83;;;3.40;;
11921;SDS011;6021;51.182;3.160;2024-02-26T01:05:59;3.57;;;3.27;;
11921;SDS011;6021;51.182;3.160;2024-02-26T01:08:27;4.37;;;3.40;;
11921;SDS011;6021;51.182;3.160;2024-02-26T01:10:56;7.17;;;3.57;;
11921;SDS011;6021;51.182;3.160;2024-02-26T01:13:24;4.83;;;4.33;;
11921;SDS011;6021;51.182;3.160;2024-02-26T01:15:52;5.00;;;4.50;;
11921;SDS011;6021;51.182;3.160;2024-02-26T01:18:21;5.17;;;4.67;;
11921;SDS011;6021;51.182;3.160;2024-02-26T01:20:49;4.67;;;3.60;;
11921;SDS011;6021;51.182;3.160;2024-02-26T01:23:20;5.20;;;4.70;;
11921;SDS011;6021;51.182;3.160;2024-02-26T01:25:48;5.70;;;4.10;;
11921;SDS011;6021;51.182;3.160;2024-02-26T01:28:16;7.23;;;4.87;;
11921;SDS011;6021;51.182;3.160;2024-02-26T01:30:45;4.97;;;4.03;;
11921;SDS011;6021;51.182;3.160;2024-02-26T01:33:13;4.97;;;3.53;;
11921;SDS011;6021;51.182;3.160;2024-02-26T01:35:42;5.07;;;3.70;;
11921;SDS011;6021;51.182;3.160;2024-02-26T01:38:10;5.13;;;3.50;;
11921;SDS011;6021;51.182;3.160;2024-02-26T01:40:38;4.40;;;3.50;;
11921;SDS011;6021;51.182;3.160;2024-02-26T01:43:07;6.73;;;3.70;;
11921;SDS011;6021;51.182;3.160;2024-02-26T01:45:35;4.53;;;3.37;;
11921;SDS011;6021;51.182;3.160;2024-02-26T01:48:03;5.20;;;4.70;;
11921;SDS011;6021;51.182;3.160;2024-02-26T01:50:32;6.77;;;4.97;;
11921;SDS011;6021;51.182;3.160;2024-02-26T01:53:01;5.63;;;4.70;;
11921;SDS011;6021;51.182;3.160;2024-02-26T01:55:29;5.13;;;4.17;;
11921;SDS011;6021;51.182;3.160;2024-02-26T01:57:58;6.10;;;3.80;;
11921;SDS011;6021;51.182;3.160;2024-02-26T02:00:26;5.13;;;3.70;;
11921;SDS011;6021;51.182;3.160;2024-02-26T02:02:55;6.40;;;5.40;;
11921;SDS011;6021;51.182;3.160;2024-02-26T02:05:23;6.77;;;5.27;;
11921;SDS011;6021;51.182;3.160;2024-02-26T02:07:53;5.93;;;4.80;;
11921;SDS011;6021;51.182;3.160;2024-02-26T02:10:22;6.40;;;5.40;;
11921;SDS011;6021;51.182;3.160;2024-02-26T02:12:52;8.97;;;5.83;;
11921;SDS011;6021;51.182;3.160;2024-02-26T02:15:20;6.83;;;4.60;;
11921;SDS011;6021;51.182;3.160;2024-02-26T02:17:48;5.87;;;5.27;;
11921;SDS011;6021;51.182;3.160;2024-02-26T02:20:17;8.13;;;5.20;;
11921;SDS011;6021;51.182;3.160;2024-02-26T02:22:46;6.23;;;4.53;;
11921;SDS011;6021;51.182;3.160;2024-02-26T02:25:14;5.10;;;4.30;;
11921;SDS011;6021;51.182;3.160;2024-02-26T02:27:42;7.20;;;5.67;;
11921;SDS011;6021;51.182;3.160;2024-02-26T02:30:11;6.83;;;4.87;;
11921;SDS011;6021;51.182;3.160;2024-02-26T02:32:40;5.87;;;4.40;;
11921;SDS011;6021;51.182;3.160;2024-02-26T02:35:08;6.30;;;4.43;;
11921;SDS011;6021;51.182;3.160;2024-02-26T02:37:37;7.37;;;6.00;;
11921;SDS011;6021;51.182;3.160;2024-02-26T02:40:05;7.77;;;6.10;;
11921;SDS011;6021;51.182;3.160;2024-02-26T02:42:34;9.17;;;5.03;;
11921;SDS011;6021;51.182;3.160;2024-02-26T02:45:03;5.17;;;4.67;;
11921;SDS011;6021;51.182;3.160;2024-02-26T02:47:31;6.43;;;4.50;;
11921;SDS011;6021;51.182;3.160;2024-02-26T02:50:01;5.20;;;4.50;;
11921;SDS011;6021;51.182;3.160;2024-02-26T02:52:30;6.57;;;5.97;;
11921;SDS011;6021;51.182;3.160;2024-02-26T02:54:58;7.53;;;5.47;;
11921;SDS011;6021;51.182;3.160;2024-02-26T02:57:26;5.90;;;4.90;;
11921;SDS011;6021;51.182;3.160;2024-02-26T02:59:55;7.67;;;6.00;;
11921;SDS011;6021;51.182;3.160;2024-02-26T03:02:23;7.53;;;5.57;;
11921;SDS011;6021;51.182;3.160;2024-02-26T03:04:52;6.77;;;4.83;;
11921;SDS011;6021;51.182;3.160;2024-02-26T03:07:20;6.43;;;5.23;;
11921;SDS011;6021;51.182;3.160;2024-02-26T03:09:48;6.33;;;5.27;;
11921;SDS011;6021;51.182;3.160;2024-02-26T03:12:16;6.97;;;5.60;;
11921;SDS011;6021;51.182;3.160;2024-02-26T03:14:45;8.73;;;7.73;;
11921;SDS011;6021;51.182;3.160;2024-02-26T03:17:13;10.47;;;8.53;;
11921;SDS011;6021;51.182;3.160;2024-02-26T03:19:43;7.67;;;6.47;;
11921;SDS011;6021;51.182;3.160;2024-02-26T03:22:13;8.87;;;6.77;;
11921;SDS011;6021;51.182;3.160;2024-02-26T03:24:41;10.57;;;9.10;;
11921;SDS011;6021;51.182;3.160;2024-02-26T03:27:10;10.63;;;9.47;;
11921;SDS011;6021;51.182;3.160;2024-02-26T03:29:38;11.27;;;10.07;;
11921;SDS011;6021;51.182;3.160;2024-02-26T03:32:06;10.57;;;9.20;;
11921;SDS011;6021;51.182;3.160;2024-02-26T03:34:35;11.07;;;9.97;;
11921;SDS011;6021;51.182;3.160;2024-02-26T03:37:05;10.30;;;7.27;;
11921;SDS011;6021;51.182;3.160;2024-02-26T03:39:35;10.53;;;7.57;;
11921;SDS011;6021;51.182;3.160;2024-02-26T03:42:03;7.73;;;6.60;;
11921;SDS011;6021;51.182;3.160;2024-02-26T03:44:32;9.13;;;6.57;;
11921;SDS011;6021;51.182;3.160;2024-02-26T03:47:00;7.87;;;5.90;;
11921;SDS011;6021;51.182;3.160;2024-02-26T03:49:28;8.37;;;7.60;;
11921;SDS011;6021;51.182;3.160;2024-02-26T03:51:57;7.77;;;6.43;;
11921;SDS011;6021;51.182;3.160;2024-02-26T03:54:25;6.37;;;5.27;;
11921;SDS011;6021;51.182;3.160;2024-02-26T03:56:55;6.93;;;4.60;;
11921;SDS011;6021;51.182;3.160;2024-02-26T03:59:23;5.17;;;4.40;;
11921;SDS011;6021;51.182;3.160;2024-02-26T04:01:53;6.17;;;4.30;;
11921;SDS011;6021;51.182;3.160;2024-02-26T04:04:21;5.77;;;3.90;;
11921;SDS011;6021;51.182;3.160;2024-02-26T04:06:49;5.47;;;3.90;;
11921;SDS011;6021;51.182;3.160;2024-02-26T04:09:18;4.03;;;3.60;;
11921;SDS011;6021;51.182;3.160;2024-02-26T04:11:46;5.90;;;5.30;;
11921;SDS011;6021;51.182;3.160;2024-02-26T04:14:15;5.80;;;4.90;;
11921;SDS011;6021;51.182;3.160;2024-02-26T04:16:43;5.27;;;4.77;;
11921;SDS011;6021;51.182;3.160;2024-02-26T04:19:11;4.67;;;3.77;;
11921;SDS011;6021;51.182;3.160;2024-02-26T04:21:41;5.10;;;4.23;;
11921;SDS011;6021;51.182;3.160;2024-02-26T04:24:09;5.20;;;3.80;;
11921;SDS011;6021;51.182;3.160;2024-02-26T04:26:37;4.73;;;4.23;;
11921;SDS011;6021;51.182;3.160;2024-02-26T04:29:05;6.23;;;5.63;;
11921;SDS011;6021;51.182;3.160;2024-02-26T04:31:34;5.13;;;4.43;;
11921;SDS011;6021;51.182;3.160;2024-02-26T04:34:04;7.40;;;4.17;;
11921;SDS011;6021;51.182;3.160;2024-02-26T04:36:33;5.33;;;3.90;;
11921;SDS011;6021;51.182;3.160;2024-02-26T04:39:01;4.30;;;3.33;;
11921;SDS011;6021;51.182;3.160;2024-02-26T04:41:30;5.27;;;4.00;;
11921;SDS011;6021;51.182;3.160;2024-02-26T04:43:58;5.00;;;3.33;;
11921;SDS011;6021;51.182;3.160;2024-02-26T04:46:27;3.30;;;3.00;;
11921;SDS011;6021;51.182;3.160;2024-02-26T04:48:55;5.67;;;2.93;;
11921;SDS011;6021;51.182;3.160;2024-02-26T04:51:23;3.63;;;2.70;;
11921;SDS011;6021;51.182;3.160;2024-02-26T04:53:52;2.93;;;2.63;;
11921;SDS011;6021;51.182;3.160;2024-02-26T04:56:21;3.70;;;2.90;;
11921;SDS011;6021;51.182;3.160;2024-02-26T04:58:49;3.03;;;2.60;;
11921;SDS011;6021;51.182;3.160;2024-02-26T05:01:18;3.67;;;2.43;;
11921;SDS011;6021;51.182;3.160;2024-02-26T05:03:46;3.03;;;2.50;;
11921;SDS011;6021;51.182;3.160;2024-02-26T05:06:15;3.63;;;3.20;;
11921;SDS011;6021;51.182;3.160;2024-02-26T05:08:43;3.50;;;3.20;;
11921;SDS011;6021;51.182;3.160;2024-02-26T05:11:12;3.37;;;2.60;;
11921;SDS011;6021;51.182;3.160;2024-02-26T05:13:41;4.23;;;2.57;;
11921;SDS011;6021;51.182;3.160;2024-02-26T05:16:10;4.73;;;2.80;;
11921;SDS011;6021;51.182;3.160;2024-02-26T05:18:38;4.67;;;2.50;;
11921;SDS011;6021;51.182;3.160;2024-02-26T05:21:06;4.73;;;3.20;;
11921;SDS011;6021;51.182;3.160;2024-02-26T05:23:35;3.97;;;3.27;;
11921;SDS011;6021;51.182;3.160;2024-02-26T05:26:04;3.87;;;3.13;;
11921;SDS011;6021;51.182;3.160;2024-02-26T05:28:32;5.73;;;3.37;;
11921;SDS011;6021;51.182;3.160;2024-02-26T05:31:01;4.40;;;4.00;;
11921;SDS011;6021;51.182;3.160;2024-02-26T05:33:30;6.63;;;3.90;;
11921;SDS011;6021;51.182;3.160;2024-02-26T05:35:58;6.20;;;5.53;;
11921;SDS011;6021;51.182;3.160;2024-02-26T05:38:28;7.63;;;4.77;;
11921;SDS011;6021;51.182;3.160;2024-02-26T05:40:58;5.30;;;4.50;;
11921;SDS011;6021;51.182;3.160;2024-02-26T05:43:26;6.07;;;4.20;;
11921;SDS011;6021;51.182;3.160;2024-02-26T05:45:56;4.73;;;4.27;;
11921;SDS011;6021;51.182;3.160;2024-02-26T05:48:24;8.97;;;4.33;;
11921;SDS011;6021;51.182;3.160;2024-02-26T05:50:52;6.27;;;4.47;;
11921;SDS011;6021;51.182;3.160;2024-02-26T05:53:20;5.13;;;4.20;;
11921;SDS011;6021;51.182;3.160;2024-02-26T05:55:49;7.07;;;4.50;;
11921;SDS011;6021;51.182;3.160;2024-02-26T05:58:17;5.10;;;3.93;;
11921;SDS011;6021;51.182;3.160;2024-02-26T06:00:45;5.53;;;4.90;;
11921;SDS011;6021;51.182;3.160;2024-02-26T06:03:14;5.53;;;4.60;;
11921;SDS011;6021;51.182;3.160;2024-02-26T06:05:42;5.57;;;4.53;;
11921;SDS011;6021;51.182;3.160;2024-02-26T06:08:10;6.10;;;4.70;;
11921;SDS011;6021;51.182;3.160;2024-02-26T06:10:39;6.93;;;4.83;;
11921;SDS011;6021;51.182;3.160;2024-02-26T06:13:08;9.10;;;5.57;;
11921;SDS011;6021;51.182;3.160;2024-02-26T06:15:36;7.53;;;5.10;;
11921;SDS011;6021;51.182;3.160;2024-02-26T06:18:04;6.93;;;5.10;;
11921;SDS011;6021;51.182;3.160;2024-02-26T06:20:33;7.07;;;5.43;;
11921;SDS011;6021;51.182;3.160;2024-02-26T06:23:01;7.37;;;5.20;;
11921;SDS011;6021;51.182;3.160;2024-02-26T06:25:29;8.50;;;5.60;;
11921;SDS011;6021;51.182;3.160;2024-02-26T06:27:58;8.47;;;6.63;;
11921;SDS011;6021;51.182;3.160;2024-02-26T06:30:26;8.57;;;5.80;;
11921;SDS011;6021;51.182;3.160;2024-02-26T06:32:55;7.50;;;5.40;;
11921;SDS011;6021;51.182;3.160;2024-02-26T06:35:23;7.83;;;6.40;;
11921;SDS011;6021;51.182;3.160;2024-02-26T06:37:51;7.57;;;5.57;;
11921;SDS011;6021;51.182;3.160;2024-02-26T06:40:21;6.20;;;5.17;;
11921;SDS011;6021;51.182;3.160;2024-02-26T06:42:49;6.27;;;5.53;;
11921;SDS011;6021;51.182;3.160;2024-02-26T06:45:18;7.57;;;5.50;;
11921;SDS011;6021;51.182;3.160;2024-02-26T06:47:47;7.50;;;6.30;;
11921;SDS011;6021;51.182;3.160;2024-02-26T06:50:15;6.40;;;5.07;;
11921;SDS011;6021;51.182;3.160;2024-02-26T06:52:44;6.57;;;5.17;;
11921;SDS011;6021;51.182;3.160;2024-02-26T06:55:13;5.90;;;4.77;;
11921;SDS011;6021;51.182;3.160;2024-02-26T06:57:43;5.33;;;4.33;;
11921;SDS011;6021;51.182;3.160;2024-02-26T07:00:13;4.10;;;3.70;;
11921;SDS011;6021;51.182;3.160;2024-02-26T07:02:43;4.57;;;3.07;;
11921;SDS011;6021;51.182;3.160;2024-02-26T07:05:11;4.63;;;3.43;;
11921;SDS011;6021;51.182;3.160;2024-02-26T07:07:40;4.73;;;4.30;;
11921;SDS011;6021;51.182;3.160;2024-02-26T07:10:08;4.53;;;3.50;;
11921;SDS011;6021;51.182;3.160;2024-02-26T07:12:39;3.40;;;3.10;;
11921;SDS011;6021;51.182;3.160;2024-02-26T07:15:07;5.27;;;3.50;;
11921;SDS011;6021;51.182;3.160;2024-02-26T07:17:37;4.17;;;3.77;;
11921;SDS011;6021;51.182;3.160;2024-02-26T07:20:08;4.10;;;3.67;;
11921;SDS011;6021;51.182;3.160;2024-02-26T07:22:37;5.23;;;3.20;;
11921;SDS011;6021;51.182;3.160;2024-02-26T07:25:05;3.07;;;2.70;;
11921;SDS011;6021;51.182;3.160;2024-02-26T07:27:38;3.00;;;2.70;;
11921;SDS011;6021;51.182;3.160;2024-02-26T07:30:07;3.70;;;3.07;;
11921;SDS011;6021;51.182;3.160;2024-02-26T07:32:36;3.40;;;2.90;;
11921;SDS011;6021;51.182;3.160;2024-02-26T07:35:04;3.63;;;2.90;;
11921;SDS011;6021;51.182;3.160;2024-02-26T07:37:33;3.80;;;2.80;;
11921;SDS011;6021;51.182;3.160;2024-02-26T07:40:01;3.97;;;2.73;;
11921;SDS011;6021;51.182;3.160;2024-02-26T07:42:30;3.83;;;2.60;;
11921;SDS011;6021;51.182;3.160;2024-02-26T07:44:58;3.47;;;2.67;;
11921;SDS011;6021;51.182;3.160;2024-02-26T07:47:26;4.77;;;2.90;;
11921;SDS011;6021;51.182;3.160;2024-02-26T07:49:56;2.77;;;2.57;;
11921;SDS011;6021;51.182;3.160;2024-02-26T07:52:24;3.90;;;3.00;;
11921;SDS011;6021;51.182;3.160;2024-02-26T07:54:53;4.37;;;2.90;;
11921;SDS011;6021;51.182;3.160;2024-02-26T07:57:21;3.97;;;2.90;;
11921;SDS011;6021;51.182;3.160;2024-02-26T07:59:51;7.73;;;3.37;;
11921;SDS011;6021;51.182;3.160;2024-02-26T08:02:21;4.07;;;3.23;;
11921;SDS011;6021;51.182;3.160;2024-02-26T08:04:49;4.07;;;2.73;;
11921;SDS011;6021;51.182;3.160;2024-02-26T08:07:18;5.90;;;4.07;;
11921;SDS011;6021;51.182;3.160;2024-02-26T08:09:47;4.37;;;3.83;;
11921;SDS011;6021;51.182;3.160;2024-02-26T08:12:16;4.93;;;3.50;;
11921;SDS011;6021;51.182;3.160;2024-02-26T08:14:44;5.33;;;3.43;;
11921;SDS011;6021;51.182;3.160;2024-02-26T08:17:12;5.67;;;3.70;;
11921;SDS011;6021;51.182;3.160;2024-02-26T08:19:41;4.20;;;3.47;;
11921;SDS011;6021;51.182;3.160;2024-02-26T08:22:09;3.80;;;3.30;;
11921;SDS011;6021;51.182;3.160;2024-02-26T08:24:39;6.00;;;4.13;;
11921;SDS011;6021;51.182;3.160;2024-02-26T08:27:07;4.03;;;3.63;;
11921;SDS011;6021;51.182;3.160;2024-02-26T08:29:38;5.67;;;3.67;;
11921;SDS011;6021;51.182;3.160;2024-02-26T08:32:06;4.67;;;3.43;;
11921;SDS011;6021;51.182;3.160;2024-02-26T08:34:34;3.70;;;3.30;;
11921;SDS011;6021;51.182;3.160;2024-02-26T08:37:03;4.77;;;3.23;;
11921;SDS011;6021;51.182;3.160;2024-02-26T08:39:33;5.00;;;4.10;;
11921;SDS011;6021;51.182;3.160;2024-02-26T08:42:01;6.17;;;3.90;;
11921;SDS011;6021;51.182;3.160;2024-02-26T08:44:30;5.60;;;4.37;;
11921;SDS011;6021;51.182;3.160;2024-02-26T08:46:58;5.67;;;4.00;;
11921;SDS011;6021;51.182;3.160;2024-02-26T08:49:27;4.70;;;4.03;;
11921;SDS011;6021;51.182;3.160;2024-02-26T08:51:55;4.17;;;3.73;;
11921;SDS011;6021;51.182;3.160;2024-02-26T08:54:26;4.27;;;3.60;;
11921;SDS011;6021;51.182;3.160;2024-02-26T08:56:57;6.17;;;4.03;;
11921;SDS011;6021;51.182;3.160;2024-02-26T08:59:26;5.27;;;3.87;;
11921;SDS011;6021;51.182;3.160;2024-02-26T09:01:54;6.27;;;4.50;;
11921;SDS011;6021;51.182;3.160;2024-02-26T09:04:22;6.63;;;5.10;;
11921;SDS011;6021;51.182;3.160;2024-02-26T09:06:51;6.73;;;5.00;;
11921;SDS011;6021;51.182;3.160;2024-02-26T09:09:20;7.27;;;4.30;;
11921;SDS011;6021;51.182;3.160;2024-02-26T09:11:49;5.80;;;4.80;;
11921;SDS011;6021;51.182;3.160;2024-02-26T09:14:18;8.40;;;5.33;;
11921;SDS011;6021;51.182;3.160;2024-02-26T09:16:48;8.37;;;5.40;;
11921;SDS011;6021;51.182;3.160;2024-02-26T09:19:16;7.37;;;5.10;;
11921;SDS011;6021;51.182;3.160;2024-02-26T09:21:45;7.13;;;4.97;;
11921;SDS011;6021;51.182;3.160;2024-02-26T09:24:13;8.33;;;5.70;;
11921;SDS011;6021;51.182;3.160;2024-02-26T09:26:42;8.03;;;5.57;;
11921;SDS011;6021;51.182;3.160;2024-02-26T09:29:10;9.90;;;6.20;;
11921;SDS011;6021;51.182;3.160;2024-02-26T09:31:40;8.87;;;7.17;;
11921;SDS011;6021;51.182;3.160;2024-02-26T09:34:08;10.60;;;6.57;;
11921;SDS011;6021;51.182;3.160;2024-02-26T09:36:37;10.37;;;6.97;;
11921;SDS011;6021;51.182;3.160;2024-02-26T09:39:05;10.27;;;7.33;;
11921;SDS011;6021;51.182;3.160;2024-02-26T09:41:35;12.37;;;8.30;;
11921;SDS011;6021;51.182;3.160;2024-02-26T09:44:04;11.73;;;8.53;;
11921;SDS011;6021;51.182;3.160;2024-02-26T09:46:33;11.57;;;8.17;;
11921;SDS011;6021;51.182;3.160;2024-02-26T09:49:02;13.17;;;9.70;;
11921;SDS011;6021;51.182;3.160;2024-02-26T09:51:31;14.20;;;10.10;;
11921;SDS011;6021;51.182;3.160;2024-02-26T09:54:00;13.80;;;9.73;;
11921;SDS011;6021;51.182;3.160;2024-02-26T09:56:30;13.53;;;9.30;;
11921;SDS011;6021;51.182;3.160;2024-02-26T09:58:59;13.70;;;9.20;;
11921;SDS011;6021;51.182;3.160;2024-02-26T10:01:28;12.07;;;8.53;;
11921;SDS011;6021;51.182;3.160;2024-02-26T10:03:58;12.37;;;8.43;;
11921;SDS011;6021;51.182;3.160;2024-02-26T10:06:28;12.67;;;9.03;;
11921;SDS011;6021;51.182;3.160;2024-02-26T10:08:56;14.43;;;10.43;;
11921;SDS011;6021;51.182;3.160;2024-02-26T10:11:27;14.40;;;10.73;;
11921;SDS011;6021;51.182;3.160;2024-02-26T10:13:57;12.17;;;8.83;;
11921;SDS011;6021;51.182;3.160;2024-02-26T10:16:27;10.97;;;8.50;;
11921;SDS011;6021;51.182;3.160;2024-02-26T10:18:56;12.00;;;8.57;;
11921;SDS011;6021;51.182;3.160;2024-02-26T10:21:25;13.43;;;8.43;;
11921;SDS011;6021;51.182;3.160;2024-02-26T10:23:53;11.60;;;7.90;;
11921;SDS011;6021;51.182;3.160;2024-02-26T10:26:22;11.40;;;8.20;;
11921;SDS011;6021;51.182;3.160;2024-02-26T10:28:50;9.87;;;7.13;;
11921;SDS011;6021;51.182;3.160;2024-02-26T10:31:18;8.87;;;6.90;;
11921;SDS011;6021;51.182;3.160;2024-02-26T10:33:47;9.17;;;7.13;;
11921;SDS011;6021;51.182;3.160;2024-02-26T10:36:16;7.80;;;6.60;;
11921;SDS011;6021;51.182;3.160;2024-02-26T10:38:44;9.97;;;6.80;;
11921;SDS011;6021;51.182;3.160;2024-02-26T10:41:13;9.37;;;6.10;;
11921;SDS011;6021;51.182;3.160;2024-02-26T10:43:42;8.47;;;6.30;;
11921;SDS011;6021;51.182;3.160;2024-02-26T10:46:11;7.03;;;5.47;;
11921;SDS011;6021;51.182;3.160;2024-02-26T10:48:39;8.47;;;6.33;;
11921;SDS011;6021;51.182;3.160;2024-02-26T10:51:10;8.13;;;5.50;;
11921;SDS011;6021;51.182;3.160;2024-02-26T10:53:40;7.53;;;5.97;;
11921;SDS011;6021;51.182;3.160;2024-02-26T10:56:12;7.77;;;5.17;;
11921;SDS011;6021;51.182;3.160;2024-02-26T10:58:43;7.80;;;5.73;;
11921;SDS011;6021;51.182;3.160;2024-02-26T11:01:15;6.97;;;5.57;;
11921;SDS011;6021;51.182;3.160;2024-02-26T11:03:45;7.37;;;6.00;;
11921;SDS011;6021;51.182;3.160;2024-02-26T11:06:15;7.37;;;5.00;;
11921;SDS011;6021;51.182;3.160;2024-02-26T11:08:44;6.47;;;4.73;;
11921;SDS011;6021;51.182;3.160;2024-02-26T11:11:17;7.53;;;5.27;;
11921;SDS011;6021;51.182;3.160;2024-02-26T11:13:47;5.27;;;4.20;;
11921;SDS011;6021;51.182;3.160;2024-02-26T11:16:18;7.00;;;4.60;;
11921;SDS011;6021;51.182;3.160;2024-02-26T11:18:50;5.33;;;4.80;;
11921;SDS011;6021;51.182;3.160;2024-02-26T11:21:22;5.63;;;4.53;;
11921;SDS011;6021;51.182;3.160;2024-02-26T11:23:52;7.37;;;5.17;;
11921;SDS011;6021;51.182;3.160;2024-02-26T11:26:21;6.17;;;5.30;;
11921;SDS011;6021;51.182;3.160;2024-02-26T11:28:52;5.87;;;4.83;;
11921;SDS011;6021;51.182;3.160;2024-02-26T11:31:24;6.37;;;4.97;;
11921;SDS011;6021;51.182;3.160;2024-02-26T11:33:54;7.07;;;4.57;;
11921;SDS011;6021;51.182;3.160;2024-02-26T11:36:24;4.90;;;3.90;;
11921;SDS011;6021;51.182;3.160;2024-02-26T11:38:52;6.23;;;3.93;;
11921;SDS011;6021;51.182;3.160;2024-02-26T11:41:22;5.70;;;3.60;;
11921;SDS011;6021;51.182;3.160;2024-02-26T11:43:51;4.37;;;3.73;;
11921;SDS011;6021;51.182;3.160;2024-02-26T11:46:29;3.90;;;3.40;;
11921;SDS011;6021;51.182;3.160;2024-02-26T11:49:03;3.57;;;3.13;;
11921;SDS011;6021;51.182;3.160;2024-02-26T11:51:33;3.60;;;3.10;;
11921;SDS011;6021;51.182;3.160;2024-02-26T11:54:02;4.93;;;2.93;;
11921;SDS011;6021;51.182;3.160;2024-02-26T11:56:31;4.23;;;3.17;;
11921;SDS011;6021;51.182;3.160;2024-02-26T11:59:04;4.93;;;3.20;;
11921;SDS011;6021;51.182;3.160;2024-02-26T12:01:42;6.03;;;3.43;;
11921;SDS011;6021;51.182;3.160;2024-02-26T12:04:19;3.57;;;3.27;;
11921;SDS011;6021;51.182;3.160;2024-02-26T12:07:00;5.20;;;3.70;;
11921;SDS011;6021;51.182;3.160;2024-02-26T12:09:36;4.47;;;3.20;;
11921;SDS011;6021;51.182;3.160;2024-02-26T12:12:07;5.00;;;3.10;;
11921;SDS011;6021;51.182;3.160;2024-02-26T12:14:40;4.10;;;3.10;;
11921;SDS011;6021;51.182;3.160;2024-02-26T12:17:18;5.70;;;3.67;;
11921;SDS011;6021;51.182;3.160;2024-02-26T12:19:44;4.97;;;3.33;;
11921;SDS011;6021;51.182;3.160;2024-02-26T12:22:12;4.60;;;3.20;;
11921;SDS011;6021;51.182;3.160;2024-02-26T12:24:42;3.70;;;3.40;;
11921;SDS011;6021;51.182;3.160;2024-02-26T12:27:11;3.80;;;3.40;;
11921;SDS011;6021;51.182;3.160;2024-02-26T12:29:39;3.50;;;3.20;;
11921;SDS011;6021;51.182;3.160;2024-02-26T12:32:09;7.13;;;3.37;;
11921;SDS011;6021;51.182;3.160;2024-02-26T12:34:38;3.63;;;3.23;;
11921;SDS011;6021;51.182;3.160;2024-02-26T12:37:06;3.37;;;2.90;;
11921;SDS011;6021;51.182;3.160;2024-02-26T12:39:37;4.17;;;3.10;;
11921;SDS011;6021;51.182;3.160;2024-02-26T12:42:05;4.87;;;2.90;;
11921;SDS011;6021;51.182;3.160;2024-02-26T12:44:34;3.40;;;2.70;;
11921;SDS011;6021;51.182;3.160;2024-02-26T12:47:05;2.80;;;2.60;;
11921;SDS011;6021;51.182;3.160;2024-02-26T12:49:33;3.23;;;2.60;;
11921;SDS011;6021;51.182;3.160;2024-02-26T12:52:01;5.10;;;2.60;;
11921;SDS011;6021;51.182;3.160;2024-02-26T12:54:30;3.73;;;2.70;;
11921;SDS011;6021;51.182;3.160;2024-02-26T12:57:00;3.60;;;2.70;;
11921;SDS011;6021;51.182;3.160;2024-02-26T12:59:29;4.03;;;2.53;;
11921;SDS011;6021;51.182;3.160;2024-02-26T13:01:58;2.97;;;2.50;;
11921;SDS011;6021;51.182;3.160;2024-02-26T13:04:28;4.73;;;2.87;;
11921;SDS011;6021;51.182;3.160;2024-02-26T13:06:57;2.80;;;2.20;;
11921;SDS011;6021;51.182;3.160;2024-02-26T13:09:27;3.23;;;2.50;;
11921;SDS011;6021;51.182;3.160;2024-02-26T13:11:57;3.33;;;2.50;;
11921;SDS011;6021;51.182;3.160;2024-02-26T13:14:26;3.53;;;2.53;;
11921;SDS011;6021;51.182;3.160;2024-02-26T13:16:57;3.47;;;2.50;;
11921;SDS011;6021;51.182;3.160;2024-02-26T13:19:27;3.87;;;2.33;;
11921;SDS011;6021;51.182;3.160;2024-02-26T13:21:55;4.60;;;2.13;;
11921;SDS011;6021;51.182;3.160;2024-02-26T13:24:25;2.47;;;2.20;;
11921;SDS011;6021;51.182;3.160;2024-02-26T13:26:54;3.13;;;2.43;;
11921;SDS011;6021;51.182;3.160;2024-02-26T13:29:23;2.43;;;2.23;;
11921;SDS011;6021;51.182;3.160;2024-02-26T13:31:55;4.47;;;2.20;;
11921;SDS011;6021;51.182;3.160;2024-02-26T13:34:25;3.27;;;2.30;;
11921;SDS011;6021;51.182;3.160;2024-02-26T13:36:54;4.10;;;2.77;;
11921;SDS011;6021;51.182;3.160;2024-02-26T13:39:28;3.60;;;2.93;;
11921;SDS011;6021;51.182;3.160;2024-02-26T13:41:53;3.53;;;2.97;;
11921;SDS011;6021;51.182;3.160;2024-02-26T13:44:23;4.70;;;3.30;;
11921;SDS011;6021;51.182;3.160;2024-02-26T13:46:53;4.90;;;3.00;;
11921;SDS011;6021;51.182;3.160;2024-02-26T13:49:22;4.30;;;3.00;;
11921;SDS011;6021;51.182;3.160;2024-02-26T13:51:51;4.17;;;2.97;;
11921;SDS011;6021;51.182;3.160;2024-02-26T13:54:19;5.40;;;3.23;;
11921;SDS011;6021;51.182;3.160;2024-02-26T13:56:47;3.70;;;3.00;;
11921;SDS011;6021;51.182;3.160;2024-02-26T13:59:16;3.23;;;2.93;;
11921;SDS011;6021;51.182;3.160;2024-02-26T14:01:44;4.63;;;3.00;;
11921;SDS011;6021;51.182;3.160;2024-02-26T14:04:12;7.00;;;3.37;;
11921;SDS011;6021;51.182;3.160;2024-02-26T14:06:41;4.50;;;3.20;;
11921;SDS011;6021;51.182;3.160;2024-02-26T14:09:09;3.30;;;3.00;;
11921;SDS011;6021;51.182;3.160;2024-02-26T14:11:38;5.20;;;3.50;;
11921;SDS011;6021;51.182;3.160;2024-02-26T14:14:07;4.57;;;2.93;;
11921;SDS011;6021;51.182;3.160;2024-02-26T14:16:35;5.67;;;3.20;;
11921;SDS011;6021;51.182;3.160;2024-02-26T14:19:05;6.53;;;4.00;;
11921;SDS011;6021;51.182;3.160;2024-02-26T14:21:34;5.73;;;3.50;;
11921;SDS011;6021;51.182;3.160;2024-02-26T14:24:03;5.67;;;3.83;;
11921;SDS011;6021;51.182;3.160;2024-02-26T14:26:33;5.70;;;3.60;;
11921;SDS011;6021;51.182;3.160;2024-02-26T14:29:02;5.60;;;3.90;;
11921;SDS011;6021;51.182;3.160;2024-02-26T14:31:33;7.30;;;4.10;;
11921;SDS011;6021;51.182;3.160;2024-02-26T14:34:01;7.13;;;4.00;;
11921;SDS011;6021;51.182;3.160;2024-02-26T14:36:30;5.30;;;3.80;;
11921;SDS011;6021;51.182;3.160;2024-02-26T14:38:58;6.37;;;3.70;;
11921;SDS011;6021;51.182;3.160;2024-02-26T14:41:26;8.00;;;4.13;;
11921;SDS011;6021;51.182;3.160;2024-02-26T14:43:55;6.10;;;4.27;;
11921;SDS011;6021;51.182;3.160;2024-02-26T14:46:23;7.37;;;4.00;;
11921;SDS011;6021;51.182;3.160;2024-02-26T14:48:51;7.57;;;4.60;;
11921;SDS011;6021;51.182;3.160;2024-02-26T14:51:21;6.80;;;4.33;;
11921;SDS011;6021;51.182;3.160;2024-02-26T14:53:49;6.87;;;4.30;;
11921;SDS011;6021;51.182;3.160;2024-02-26T14:56:18;7.50;;;4.10;;
11921;SDS011;6021;51.182;3.160;2024-02-26T14:58:47;8.23;;;4.30;;
11921;SDS011;6021;51.182;3.160;2024-02-26T15:01:16;6.70;;;4.07;;
11921;SDS011;6021;51.182;3.160;2024-02-26T15:03:44;7.60;;;4.13;;
11921;SDS011;6021;51.182;3.160;2024-02-26T15:06:12;7.80;;;4.53;;
11921;SDS011;6021;51.182;3.160;2024-02-26T15:08:42;7.40;;;3.87;;
11921;SDS011;6021;51.182;3.160;2024-02-26T15:11:10;6.93;;;3.77;;